sensor_id;sensor_type;location;lat;lon;timestamp;P1;durP1;ratioP1;P2;durP2;ratioP2
8755;SDS011;4414;42.670;23.228;2022-08-01T00:02:18;3.75;;;3.45;;
8755;SDS011;4414;42.670;23.228;2022-08-01T00:04:45;3.83;;;3.53;;
8755;SDS011;4414;42.670;23.228;2022-08-01T00:07:12;3.17;;;2.97;;
8755;SDS011;4414;42.670;23.228;2022-08-01T00:09:39;4.28;;;3.45;;
8755;SDS011;4414;42.670;23.228;2022-08-01T00:12:05;3.13;;;2.85;;
8755;SDS011;4414;42.670;23.228;2022-08-01T00:14:32;3.05;;;2.85;;
8755;SDS011;4414;42.670;23.228;2022-08-01T00:16:59;8.40;;;3.20;;
8755;SDS011;4414;42.670;23.228;2022-08-01T00:19:27;2.78;;;2.67;;
8755;SDS011;4414;42.670;23.228;2022-08-01T00:21:54;2.90;;;2.78;;
8755;SDS011;4414;42.670;23.228;2022-08-01T00:24:21;3.35;;;3.08;;
8755;SDS011;4414;42.670;23.228;2022-08-01T00:26:47;3.05;;;2.85;;
8755;SDS011;4414;42.670;23.228;2022-08-01T00:29:14;2.97;;;2.78;;
8755;SDS011;4414;42.670;23.228;2022-08-01T00:31:41;3.50;;;3.20;;
8755;SDS011;4414;42.670;23.228;2022-08-01T00:34:08;2.78;;;2.53;;
8755;SDS011;4414;42.670;23.228;2022-08-01T00:36:36;2.60;;;2.50;;
8755;SDS011;4414;42.670;23.228;2022-08-01T00:39:03;2.50;;;2.40;;
8755;SDS011;4414;42.670;23.228;2022-08-01T00:41:29;2.92;;;2.65;;
8755;SDS011;4414;42.670;23.228;2022-08-01T00:43:56;2.50;;;2.40;;
8755;SDS011;4414;42.670;23.228;2022-08-01T00:46:23;5.38;;;2.80;;
8755;SDS011;4414;42.670;23.228;2022-08-01T00:48:50;4.88;;;2.50;;
8755;SDS011;4414;42.670;23.228;2022-08-01T00:51:16;3.35;;;2.75;;
8755;SDS011;4414;42.670;23.228;2022-08-01T00:53:45;2.58;;;2.38;;
8755;SDS011;4414;42.670;23.228;2022-08-01T00:56:12;3.55;;;2.45;;
8755;SDS011;4414;42.670;23.228;2022-08-01T00:58:39;2.83;;;2.50;;
8755;SDS011;4414;42.670;23.228;2022-08-01T01:01:06;2.70;;;2.50;;
8755;SDS011;4414;42.670;23.228;2022-08-01T01:03:33;4.40;;;2.05;;
8755;SDS011;4414;42.670;23.228;2022-08-01T01:06:05;2.92;;;2.20;;
8755;SDS011;4414;42.670;23.228;2022-08-01T01:08:39;2.30;;;2.10;;
8755;SDS011;4414;42.670;23.228;2022-08-01T01:11:13;4.75;;;2.22;;
8755;SDS011;4414;42.670;23.228;2022-08-01T01:13:47;3.38;;;2.15;;
8755;SDS011;4414;42.670;23.228;2022-08-01T01:16:18;3.22;;;2.75;;
8755;SDS011;4414;42.670;23.228;2022-08-01T01:18:47;1.95;;;1.85;;
8755;SDS011;4414;42.670;23.228;2022-08-01T01:21:39;2.35;;;2.25;;
8755;SDS011;4414;42.670;23.228;2022-08-01T01:24:19;2.35;;;2.15;;
8755;SDS011;4414;42.670;23.228;2022-08-01T01:27:04;1.75;;;1.70;;
8755;SDS011;4414;42.670;23.228;2022-08-01T01:29:40;3.42;;;1.90;;
8755;SDS011;4414;42.670;23.228;2022-08-01T01:32:09;1.95;;;1.85;;
8755;SDS011;4414;42.670;23.228;2022-08-01T01:34:42;1.70;;;1.70;;
8755;SDS011;4414;42.670;23.228;2022-08-01T01:37:14;1.92;;;1.65;;
8755;SDS011;4414;42.670;23.228;2022-08-01T01:39:43;1.95;;;1.85;;
8755;SDS011;4414;42.670;23.228;2022-08-01T01:42:12;1.92;;;1.73;;
8755;SDS011;4414;42.670;23.228;2022-08-01T01:44:43;2.08;;;1.98;;
8755;SDS011;4414;42.670;23.228;2022-08-01T01:47:11;1.67;;;1.58;;
8755;SDS011;4414;42.670;23.228;2022-08-01T01:49:39;1.85;;;1.75;;
8755;SDS011;4414;42.670;23.228;2022-08-01T01:52:07;1.98;;;1.60;;
8755;SDS011;4414;42.670;23.228;2022-08-01T01:54:36;1.55;;;1.55;;
8755;SDS011;4414;42.670;23.228;2022-08-01T01:57:06;1.60;;;1.50;;
8755;SDS011;4414;42.670;23.228;2022-08-01T01:59:36;2.65;;;1.70;;
8755;SDS011;4414;42.670;23.228;2022-08-01T02:02:06;2.13;;;2.03;;
8755;SDS011;4414;42.670;23.228;2022-08-01T02:04:35;2.13;;;1.50;;
8755;SDS011;4414;42.670;23.228;2022-08-01T02:07:04;2.60;;;1.63;;
8755;SDS011;4414;42.670;23.228;2022-08-01T02:09:33;4.45;;;1.58;;
8755;SDS011;4414;42.670;23.228;2022-08-01T02:12:03;2.83;;;1.60;;
8755;SDS011;4414;42.670;23.228;2022-08-01T02:14:32;2.00;;;1.77;;
8755;SDS011;4414;42.670;23.228;2022-08-01T02:17:01;2.88;;;1.85;;
8755;SDS011;4414;42.670;23.228;2022-08-01T02:19:30;3.03;;;1.85;;
8755;SDS011;4414;42.670;23.228;2022-08-01T02:21:59;2.35;;;1.92;;
8755;SDS011;4414;42.670;23.228;2022-08-01T02:24:28;2.17;;;1.70;;
8755;SDS011;4414;42.670;23.228;2022-08-01T02:27:03;2.00;;;1.90;;
8755;SDS011;4414;42.670;23.228;2022-08-01T02:29:36;2.13;;;1.83;;
8755;SDS011;4414;42.670;23.228;2022-08-01T02:32:10;3.22;;;2.25;;
8755;SDS011;4414;42.670;23.228;2022-08-01T02:34:43;2.00;;;1.90;;
8755;SDS011;4414;42.670;23.228;2022-08-01T02:37:14;3.15;;;1.95;;
8755;SDS011;4414;42.670;23.228;2022-08-01T02:39:42;2.13;;;2.00;;
8755;SDS011;4414;42.670;23.228;2022-08-01T02:42:12;1.75;;;1.65;;
8755;SDS011;4414;42.670;23.228;2022-08-01T02:44:42;2.05;;;1.95;;
8755;SDS011;4414;42.670;23.228;2022-08-01T02:47:10;2.25;;;2.15;;
8755;SDS011;4414;42.670;23.228;2022-08-01T02:49:39;3.63;;;1.88;;
8755;SDS011;4414;42.670;23.228;2022-08-01T02:52:12;2.10;;;2.00;;
8755;SDS011;4414;42.670;23.228;2022-08-01T02:54:40;2.72;;;2.22;;
8755;SDS011;4414;42.670;23.228;2022-08-01T02:57:10;3.13;;;2.00;;
8755;SDS011;4414;42.670;23.228;2022-08-01T02:59:39;2.15;;;1.95;;
8755;SDS011;4414;42.670;23.228;2022-08-01T03:02:07;2.42;;;1.90;;
8755;SDS011;4414;42.670;23.228;2022-08-01T03:04:36;2.05;;;1.67;;
8755;SDS011;4414;42.670;23.228;2022-08-01T03:07:06;2.00;;;1.90;;
8755;SDS011;4414;42.670;23.228;2022-08-01T03:09:35;2.22;;;2.13;;
8755;SDS011;4414;42.670;23.228;2022-08-01T03:12:06;1.95;;;1.80;;
8755;SDS011;4414;42.670;23.228;2022-08-01T03:14:38;3.22;;;2.42;;
8755;SDS011;4414;42.670;23.228;2022-08-01T03:17:06;4.28;;;2.25;;
8755;SDS011;4414;42.670;23.228;2022-08-01T03:19:36;3.13;;;1.80;;
8755;SDS011;4414;42.670;23.228;2022-08-01T03:22:07;2.05;;;1.95;;
8755;SDS011;4414;42.670;23.228;2022-08-01T03:24:38;2.15;;;1.83;;
8755;SDS011;4414;42.670;23.228;2022-08-01T03:27:06;3.13;;;2.15;;
8755;SDS011;4414;42.670;23.228;2022-08-01T03:29:35;2.30;;;2.20;;
8755;SDS011;4414;42.670;23.228;2022-08-01T03:32:04;2.47;;;2.38;;
8755;SDS011;4414;42.670;23.228;2022-08-01T03:34:32;2.13;;;2.03;;
8755;SDS011;4414;42.670;23.228;2022-08-01T03:37:01;2.03;;;1.92;;
8755;SDS011;4414;42.670;23.228;2022-08-01T03:39:34;2.05;;;1.95;;
8755;SDS011;4414;42.670;23.228;2022-08-01T03:42:07;2.47;;;2.38;;
8755;SDS011;4414;42.670;23.228;2022-08-01T03:44:38;2.40;;;2.20;;
8755;SDS011;4414;42.670;23.228;2022-08-01T03:47:07;2.65;;;2.53;;
8755;SDS011;4414;42.670;23.228;2022-08-01T03:49:37;2.90;;;2.70;;
8755;SDS011;4414;42.670;23.228;2022-08-01T03:52:07;3.05;;;2.53;;
8755;SDS011;4414;42.670;23.228;2022-08-01T03:54:37;2.50;;;2.35;;
8755;SDS011;4414;42.670;23.228;2022-08-01T03:57:07;2.63;;;2.22;;
8755;SDS011;4414;42.670;23.228;2022-08-01T03:59:36;2.90;;;2.65;;
8755;SDS011;4414;42.670;23.228;2022-08-01T04:02:04;2.45;;;2.05;;
8755;SDS011;4414;42.670;23.228;2022-08-01T04:04:32;3.20;;;2.42;;
8755;SDS011;4414;42.670;23.228;2022-08-01T04:07:00;2.75;;;2.50;;
8755;SDS011;4414;42.670;23.228;2022-08-01T04:09:31;2.55;;;2.35;;
8755;SDS011;4414;42.670;23.228;2022-08-01T04:12:02;3.17;;;2.53;;
8755;SDS011;4414;42.670;23.228;2022-08-01T04:14:29;2.45;;;2.33;;
8755;SDS011;4414;42.670;23.228;2022-08-01T04:16:56;6.32;;;2.53;;
8755;SDS011;4414;42.670;23.228;2022-08-01T04:19:23;2.33;;;2.22;;
8755;SDS011;4414;42.670;23.228;2022-08-01T04:21:51;2.67;;;2.55;;
8755;SDS011;4414;42.670;23.228;2022-08-01T04:24:18;2.80;;;2.70;;
8755;SDS011;4414;42.670;23.228;2022-08-01T04:26:48;2.85;;;2.55;;
8755;SDS011;4414;42.670;23.228;2022-08-01T04:29:19;2.45;;;2.25;;
8755;SDS011;4414;42.670;23.228;2022-08-01T04:31:48;3.85;;;2.85;;
8755;SDS011;4414;42.670;23.228;2022-08-01T04:34:17;2.17;;;2.08;;
8755;SDS011;4414;42.670;23.228;2022-08-01T04:36:47;3.30;;;2.47;;
8755;SDS011;4414;42.670;23.228;2022-08-01T04:39:16;2.88;;;2.55;;
8755;SDS011;4414;42.670;23.228;2022-08-01T04:41:45;2.60;;;2.40;;
8755;SDS011;4414;42.670;23.228;2022-08-01T04:44:13;2.33;;;2.22;;
8755;SDS011;4414;42.670;23.228;2022-08-01T04:46:42;4.38;;;2.47;;
8755;SDS011;4414;42.670;23.228;2022-08-01T04:49:10;2.15;;;2.05;;
8755;SDS011;4414;42.670;23.228;2022-08-01T04:51:37;2.28;;;2.17;;
8755;SDS011;4414;42.670;23.228;2022-08-01T04:54:16;2.33;;;2.13;;
8755;SDS011;4414;42.670;23.228;2022-08-01T04:56:43;2.50;;;2.40;;
8755;SDS011;4414;42.670;23.228;2022-08-01T04:59:11;3.25;;;2.33;;
8755;SDS011;4414;42.670;23.228;2022-08-01T05:01:56;2.33;;;2.22;;
8755;SDS011;4414;42.670;23.228;2022-08-01T05:04:23;3.15;;;2.30;;
8755;SDS011;4414;42.670;23.228;2022-08-01T05:06:49;2.60;;;2.40;;
8755;SDS011;4414;42.670;23.228;2022-08-01T05:09:16;2.45;;;1.90;;
8755;SDS011;4414;42.670;23.228;2022-08-01T05:11:43;2.88;;;2.63;;
8755;SDS011;4414;42.670;23.228;2022-08-01T05:14:10;2.08;;;1.98;;
8755;SDS011;4414;42.670;23.228;2022-08-01T05:16:36;2.83;;;2.55;;
8755;SDS011;4414;42.670;23.228;2022-08-01T05:19:05;2.80;;;2.03;;
8755;SDS011;4414;42.670;23.228;2022-08-01T05:21:33;2.45;;;2.25;;
8755;SDS011;4414;42.670;23.228;2022-08-01T05:24:00;2.83;;;2.47;;
8755;SDS011;4414;42.670;23.228;2022-08-01T05:26:27;1.88;;;1.77;;
8755;SDS011;4414;42.670;23.228;2022-08-01T05:28:54;2.70;;;2.50;;
8755;SDS011;4414;42.670;23.228;2022-08-01T05:31:21;2.00;;;1.90;;
8755;SDS011;4414;42.670;23.228;2022-08-01T05:33:47;3.70;;;2.10;;
8755;SDS011;4414;42.670;23.228;2022-08-01T05:36:16;3.03;;;2.67;;
8755;SDS011;4414;42.670;23.228;2022-08-01T05:38:42;2.50;;;2.40;;
8755;SDS011;4414;42.670;23.228;2022-08-01T05:41:10;2.85;;;2.40;;
8755;SDS011;4414;42.670;23.228;2022-08-01T05:43:37;2.17;;;2.08;;
8755;SDS011;4414;42.670;23.228;2022-08-01T05:46:04;2.65;;;2.45;;
8755;SDS011;4414;42.670;23.228;2022-08-01T05:48:30;2.83;;;2.40;;
8755;SDS011;4414;42.670;23.228;2022-08-01T05:50:57;2.38;;;2.00;;
8755;SDS011;4414;42.670;23.228;2022-08-01T05:53:26;2.30;;;2.20;;
8755;SDS011;4414;42.670;23.228;2022-08-01T05:55:53;2.20;;;2.10;;
8755;SDS011;4414;42.670;23.228;2022-08-01T05:58:20;2.33;;;2.22;;
8755;SDS011;4414;42.670;23.228;2022-08-01T06:00:47;2.80;;;2.20;;
8755;SDS011;4414;42.670;23.228;2022-08-01T06:03:14;5.50;;;3.17;;
8755;SDS011;4414;42.670;23.228;2022-08-01T06:05:40;2.55;;;2.20;;
8755;SDS011;4414;42.670;23.228;2022-08-01T06:08:07;2.40;;;2.20;;
8755;SDS011;4414;42.670;23.228;2022-08-01T06:10:35;2.67;;;2.45;;
8755;SDS011;4414;42.670;23.228;2022-08-01T06:13:02;2.25;;;2.10;;
8755;SDS011;4414;42.670;23.228;2022-08-01T06:15:29;2.67;;;2.47;;
8755;SDS011;4414;42.670;23.228;2022-08-01T06:17:56;2.45;;;2.25;;
8755;SDS011;4414;42.670;23.228;2022-08-01T06:20:23;2.70;;;2.60;;
8755;SDS011;4414;42.670;23.228;2022-08-01T06:22:49;2.70;;;2.20;;
8755;SDS011;4414;42.670;23.228;2022-08-01T06:25:16;2.65;;;2.55;;
8755;SDS011;4414;42.670;23.228;2022-08-01T06:27:45;2.65;;;2.30;;
8755;SDS011;4414;42.670;23.228;2022-08-01T06:30:12;2.58;;;2.38;;
8755;SDS011;4414;42.670;23.228;2022-08-01T06:32:39;2.38;;;2.20;;
8755;SDS011;4414;42.670;23.228;2022-08-01T06:35:06;2.78;;;2.47;;
8755;SDS011;4414;42.670;23.228;2022-08-01T06:37:33;2.80;;;2.60;;
8755;SDS011;4414;42.670;23.228;2022-08-01T06:40:00;3.28;;;2.42;;
8755;SDS011;4414;42.670;23.228;2022-08-01T06:42:27;3.17;;;2.60;;
8755;SDS011;4414;42.670;23.228;2022-08-01T06:44:57;3.05;;;2.75;;
8755;SDS011;4414;42.670;23.228;2022-08-01T06:47:24;2.47;;;2.38;;
8755;SDS011;4414;42.670;23.228;2022-08-01T06:49:51;6.45;;;2.75;;
8755;SDS011;4414;42.670;23.228;2022-08-01T06:52:18;2.95;;;2.75;;
8755;SDS011;4414;42.670;23.228;2022-08-01T06:54:44;2.75;;;2.40;;
8755;SDS011;4414;42.670;23.228;2022-08-01T06:57:11;2.50;;;2.30;;
8755;SDS011;4414;42.670;23.228;2022-08-01T06:59:38;2.70;;;2.50;;
8755;SDS011;4414;42.670;23.228;2022-08-01T07:02:06;2.53;;;2.33;;
8755;SDS011;4414;42.670;23.228;2022-08-01T07:04:33;3.47;;;2.83;;
8755;SDS011;4414;42.670;23.228;2022-08-01T07:07:00;3.83;;;2.80;;
8755;SDS011;4414;42.670;23.228;2022-08-01T07:09:28;2.67;;;2.50;;
8755;SDS011;4414;42.670;23.228;2022-08-01T07:11:55;3.20;;;2.42;;
8755;SDS011;4414;42.670;23.228;2022-08-01T07:14:22;2.63;;;2.30;;
8755;SDS011;4414;42.670;23.228;2022-08-01T07:16:50;3.22;;;2.80;;
8755;SDS011;4414;42.670;23.228;2022-08-01T07:19:18;3.15;;;2.38;;
8755;SDS011;4414;42.670;23.228;2022-08-01T07:21:45;2.83;;;2.63;;
8755;SDS011;4414;42.670;23.228;2022-08-01T07:24:12;2.75;;;2.65;;
8755;SDS011;4414;42.670;23.228;2022-08-01T07:26:40;2.78;;;2.67;;
8755;SDS011;4414;42.670;23.228;2022-08-01T07:29:08;3.38;;;3.08;;
8755;SDS011;4414;42.670;23.228;2022-08-01T07:31:35;2.65;;;2.50;;
8755;SDS011;4414;42.670;23.228;2022-08-01T07:34:02;3.85;;;2.95;;
8755;SDS011;4414;42.670;23.228;2022-08-01T07:36:30;2.70;;;2.50;;
8755;SDS011;4414;42.670;23.228;2022-08-01T07:38:57;2.63;;;2.53;;
8755;SDS011;4414;42.670;23.228;2022-08-01T07:41:24;2.88;;;2.35;;
8755;SDS011;4414;42.670;23.228;2022-08-01T07:43:50;2.88;;;2.67;;
8755;SDS011;4414;42.670;23.228;2022-08-01T07:46:17;2.90;;;2.70;;
8755;SDS011;4414;42.670;23.228;2022-08-01T07:48:44;2.67;;;2.53;;
8755;SDS011;4414;42.670;23.228;2022-08-01T07:51:10;4.50;;;2.95;;
8755;SDS011;4414;42.670;23.228;2022-08-01T07:53:39;2.50;;;2.40;;
8755;SDS011;4414;42.670;23.228;2022-08-01T07:56:05;4.93;;;2.58;;
8755;SDS011;4414;42.670;23.228;2022-08-01T07:58:32;3.40;;;3.20;;
8755;SDS011;4414;42.670;23.228;2022-08-01T08:01:00;3.25;;;2.83;;
8755;SDS011;4414;42.670;23.228;2022-08-01T08:03:27;2.45;;;2.25;;
8755;SDS011;4414;42.670;23.228;2022-08-01T08:05:53;2.80;;;2.58;;
8755;SDS011;4414;42.670;23.228;2022-08-01T08:08:20;4.60;;;2.22;;
8755;SDS011;4414;42.670;23.228;2022-08-01T08:10:48;2.70;;;2.60;;
8755;SDS011;4414;42.670;23.228;2022-08-01T08:13:15;4.63;;;2.65;;
8755;SDS011;4414;42.670;23.228;2022-08-01T08:15:42;3.00;;;2.80;;
8755;SDS011;4414;42.670;23.228;2022-08-01T08:18:08;3.90;;;2.75;;
8755;SDS011;4414;42.670;23.228;2022-08-01T08:20:35;3.70;;;2.42;;
8755;SDS011;4414;42.670;23.228;2022-08-01T08:23:02;2.92;;;2.72;;
8755;SDS011;4414;42.670;23.228;2022-08-01T08:25:50;2.72;;;2.53;;
8755;SDS011;4414;42.670;23.228;2022-08-01T08:28:17;2.95;;;2.75;;
8755;SDS011;4414;42.670;23.228;2022-08-01T08:30:43;2.70;;;2.47;;
8755;SDS011;4414;42.670;23.228;2022-08-01T08:33:10;2.90;;;2.70;;
8755;SDS011;4414;42.670;23.228;2022-08-01T08:35:38;2.60;;;2.50;;
8755;SDS011;4414;42.670;23.228;2022-08-01T08:38:05;3.65;;;2.60;;
8755;SDS011;4414;42.670;23.228;2022-08-01T08:40:32;2.85;;;2.65;;
8755;SDS011;4414;42.670;23.228;2022-08-01T08:43:03;2.70;;;2.60;;
8755;SDS011;4414;42.670;23.228;2022-08-01T08:45:31;2.90;;;2.70;;
8755;SDS011;4414;42.670;23.228;2022-08-01T08:47:58;3.22;;;2.90;;
8755;SDS011;4414;42.670;23.228;2022-08-01T08:50:26;2.80;;;2.60;;
8755;SDS011;4414;42.670;23.228;2022-08-01T08:52:54;2.78;;;2.40;;
8755;SDS011;4414;42.670;23.228;2022-08-01T08:55:21;3.22;;;2.92;;
8755;SDS011;4414;42.670;23.228;2022-08-01T08:57:49;3.15;;;2.95;;
8755;SDS011;4414;42.670;23.228;2022-08-01T09:00:19;2.38;;;2.28;;
8755;SDS011;4414;42.670;23.228;2022-08-01T09:02:47;2.38;;;2.28;;
8755;SDS011;4414;42.670;23.228;2022-08-01T09:05:15;3.28;;;2.85;;
8755;SDS011;4414;42.670;23.228;2022-08-01T09:07:42;3.33;;;2.20;;
8755;SDS011;4414;42.670;23.228;2022-08-01T09:10:09;2.95;;;2.70;;
8755;SDS011;4414;42.670;23.228;2022-08-01T09:12:36;2.22;;;2.13;;
8755;SDS011;4414;42.670;23.228;2022-08-01T09:15:03;2.67;;;2.55;;
8755;SDS011;4414;42.670;23.228;2022-08-01T09:17:40;2.60;;;2.50;;
8755;SDS011;4414;42.670;23.228;2022-08-01T09:20:07;3.00;;;2.67;;
8755;SDS011;4414;42.670;23.228;2022-08-01T09:22:48;2.70;;;2.50;;
8755;SDS011;4414;42.670;23.228;2022-08-01T09:25:14;2.63;;;2.42;;
8755;SDS011;4414;42.670;23.228;2022-08-01T09:27:41;2.50;;;2.40;;
8755;SDS011;4414;42.670;23.228;2022-08-01T09:30:09;2.38;;;2.28;;
8755;SDS011;4414;42.670;23.228;2022-08-01T09:35:32;3.03;;;2.83;;
8755;SDS011;4414;42.670;23.228;2022-08-01T09:38:11;2.97;;;2.88;;
8755;SDS011;4414;42.670;23.228;2022-08-01T09:40:46;2.63;;;2.30;;
8755;SDS011;4414;42.670;23.228;2022-08-01T09:43:14;3.53;;;3.17;;
8755;SDS011;4414;42.670;23.228;2022-08-01T09:45:41;6.07;;;3.05;;
8755;SDS011;4414;42.670;23.228;2022-08-01T09:48:08;2.88;;;2.78;;
8755;SDS011;4414;42.670;23.228;2022-08-01T09:50:41;5.05;;;3.03;;
8755;SDS011;4414;42.670;23.228;2022-08-01T09:53:08;2.75;;;2.65;;
8755;SDS011;4414;42.670;23.228;2022-08-01T09:55:36;3.83;;;3.53;;
8755;SDS011;4414;42.670;23.228;2022-08-01T09:58:04;4.15;;;2.90;;
8755;SDS011;4414;42.670;23.228;2022-08-01T10:00:31;2.85;;;2.75;;
8755;SDS011;4414;42.670;23.228;2022-08-01T10:02:58;3.40;;;3.20;;
8755;SDS011;4414;42.670;23.228;2022-08-01T10:05:31;3.00;;;2.80;;
8755;SDS011;4414;42.670;23.228;2022-08-01T10:08:02;2.80;;;2.60;;
8755;SDS011;4414;42.670;23.228;2022-08-01T10:10:31;3.13;;;2.80;;
8755;SDS011;4414;42.670;23.228;2022-08-01T10:12:58;3.80;;;3.40;;
8755;SDS011;4414;42.670;23.228;2022-08-01T10:15:25;4.82;;;3.00;;
8755;SDS011;4414;42.670;23.228;2022-08-01T10:17:53;2.55;;;2.45;;
8755;SDS011;4414;42.670;23.228;2022-08-01T10:20:24;5.53;;;2.75;;
8755;SDS011;4414;42.670;23.228;2022-08-01T10:22:53;2.53;;;2.42;;
8755;SDS011;4414;42.670;23.228;2022-08-01T10:25:22;2.95;;;2.70;;
8755;SDS011;4414;42.670;23.228;2022-08-01T10:27:52;2.88;;;2.60;;
8755;SDS011;4414;42.670;23.228;2022-08-01T10:30:20;2.35;;;2.25;;
8755;SDS011;4414;42.670;23.228;2022-08-01T10:32:48;2.75;;;2.55;;
8755;SDS011;4414;42.670;23.228;2022-08-01T10:35:17;2.85;;;2.75;;
8755;SDS011;4414;42.670;23.228;2022-08-01T10:37:45;2.65;;;2.45;;
8755;SDS011;4414;42.670;23.228;2022-08-01T10:40:12;4.50;;;2.83;;
8755;SDS011;4414;42.670;23.228;2022-08-01T10:42:42;5.20;;;2.33;;
8755;SDS011;4414;42.670;23.228;2022-08-01T10:45:11;2.38;;;2.28;;
8755;SDS011;4414;42.670;23.228;2022-08-01T10:47:40;2.97;;;2.42;;
8755;SDS011;4414;42.670;23.228;2022-08-01T10:50:13;3.85;;;2.45;;
8755;SDS011;4414;42.670;23.228;2022-08-01T10:53:07;2.20;;;2.10;;
8755;SDS011;4414;42.670;23.228;2022-08-01T10:55:47;2.60;;;2.40;;
8755;SDS011;4414;42.670;23.228;2022-08-01T10:58:24;2.42;;;2.33;;
8755;SDS011;4414;42.670;23.228;2022-08-01T11:03:43;2.35;;;2.15;;
8755;SDS011;4414;42.670;23.228;2022-08-01T11:06:15;2.40;;;2.30;;
8755;SDS011;4414;42.670;23.228;2022-08-01T11:08:44;2.65;;;2.45;;
8755;SDS011;4414;42.670;23.228;2022-08-01T11:11:18;2.95;;;2.75;;
8755;SDS011;4414;42.670;23.228;2022-08-01T11:14:03;2.45;;;2.35;;
8755;SDS011;4414;42.670;23.228;2022-08-01T11:16:35;2.50;;;2.40;;
8755;SDS011;4414;42.670;23.228;2022-08-01T11:19:03;2.42;;;2.33;;
8755;SDS011;4414;42.670;23.228;2022-08-01T11:27:22;2.58;;;2.47;;
8755;SDS011;4414;42.670;23.228;2022-08-01T11:32:55;2.78;;;2.67;;
8755;SDS011;4414;42.670;23.228;2022-08-01T11:35:23;2.60;;;2.40;;
8755;SDS011;4414;42.670;23.228;2022-08-01T11:37:52;3.00;;;2.90;;
8755;SDS011;4414;42.670;23.228;2022-08-01T11:40:21;3.00;;;2.47;;
8755;SDS011;4414;42.670;23.228;2022-08-01T11:42:50;3.38;;;2.75;;
8755;SDS011;4414;42.670;23.228;2022-08-01T11:45:47;3.00;;;2.90;;
8755;SDS011;4414;42.670;23.228;2022-08-01T11:48:18;2.92;;;2.80;;
8755;SDS011;4414;42.670;23.228;2022-08-01T11:50:46;2.72;;;2.58;;
8755;SDS011;4414;42.670;23.228;2022-08-01T11:53:12;4.57;;;3.10;;
8755;SDS011;4414;42.670;23.228;2022-08-01T11:55:43;2.95;;;2.85;;
8755;SDS011;4414;42.670;23.228;2022-08-01T11:58:13;3.17;;;3.00;;
8755;SDS011;4414;42.670;23.228;2022-08-01T12:00:40;3.50;;;3.20;;
8755;SDS011;4414;42.670;23.228;2022-08-01T12:03:09;3.45;;;3.15;;
8755;SDS011;4414;42.670;23.228;2022-08-01T12:05:36;2.75;;;2.60;;
8755;SDS011;4414;42.670;23.228;2022-08-01T12:08:03;2.80;;;2.60;;
8755;SDS011;4414;42.670;23.228;2022-08-01T12:10:32;2.85;;;2.75;;
8755;SDS011;4414;42.670;23.228;2022-08-01T12:13:04;3.33;;;3.22;;
8755;SDS011;4414;42.670;23.228;2022-08-01T12:15:32;15.60;;;5.07;;
8755;SDS011;4414;42.670;23.228;2022-08-01T12:18:01;3.90;;;3.25;;
8755;SDS011;4414;42.670;23.228;2022-08-01T12:20:31;3.30;;;3.17;;
8755;SDS011;4414;42.670;23.228;2022-08-01T12:23:01;3.50;;;3.30;;
8755;SDS011;4414;42.670;23.228;2022-08-01T12:25:30;5.85;;;3.38;;
8755;SDS011;4414;42.670;23.228;2022-08-01T12:27:59;3.45;;;3.25;;
8755;SDS011;4414;42.670;23.228;2022-08-01T12:30:27;3.60;;;3.40;;
8755;SDS011;4414;42.670;23.228;2022-08-01T12:32:56;3.90;;;3.65;;
8755;SDS011;4414;42.670;23.228;2022-08-01T12:35:24;3.38;;;3.00;;
8755;SDS011;4414;42.670;23.228;2022-08-01T12:37:54;3.40;;;3.20;;
8755;SDS011;4414;42.670;23.228;2022-08-01T12:40:22;4.63;;;3.40;;
8755;SDS011;4414;42.670;23.228;2022-08-01T12:42:51;4.15;;;3.60;;
8755;SDS011;4414;42.670;23.228;2022-08-01T12:45:20;4.85;;;3.63;;
8755;SDS011;4414;42.670;23.228;2022-08-01T12:47:50;2.92;;;2.72;;
8755;SDS011;4414;42.670;23.228;2022-08-01T12:50:19;3.17;;;2.97;;
8755;SDS011;4414;42.670;23.228;2022-08-01T12:52:47;7.65;;;2.60;;
8755;SDS011;4414;42.670;23.228;2022-08-01T12:55:16;2.70;;;2.58;;
8755;SDS011;4414;42.670;23.228;2022-08-01T12:57:45;2.85;;;2.70;;
8755;SDS011;4414;42.670;23.228;2022-08-01T13:00:21;2.95;;;2.83;;
8755;SDS011;4414;42.670;23.228;2022-08-01T13:02:50;3.30;;;2.97;;
8755;SDS011;4414;42.670;23.228;2022-08-01T13:05:26;3.78;;;2.70;;
8755;SDS011;4414;42.670;23.228;2022-08-01T13:07:53;3.08;;;2.88;;
8755;SDS011;4414;42.670;23.228;2022-08-01T13:10:28;3.00;;;2.80;;
8755;SDS011;4414;42.670;23.228;2022-08-01T13:12:56;3.58;;;2.92;;
8755;SDS011;4414;42.670;23.228;2022-08-01T13:15:25;2.70;;;2.60;;
8755;SDS011;4414;42.670;23.228;2022-08-01T13:17:56;2.85;;;2.75;;
8755;SDS011;4414;42.670;23.228;2022-08-01T13:20:31;3.08;;;2.88;;
8755;SDS011;4414;42.670;23.228;2022-08-01T13:23:13;2.90;;;2.80;;
8755;SDS011;4414;42.670;23.228;2022-08-01T13:25:52;3.40;;;3.20;;
8755;SDS011;4414;42.670;23.228;2022-08-01T13:28:21;2.60;;;2.50;;
8755;SDS011;4414;42.670;23.228;2022-08-01T13:30:56;3.15;;;2.90;;
8755;SDS011;4414;42.670;23.228;2022-08-01T13:33:24;2.50;;;2.40;;
8755;SDS011;4414;42.670;23.228;2022-08-01T13:35:52;2.55;;;2.45;;
8755;SDS011;4414;42.670;23.228;2022-08-01T13:38:20;2.60;;;2.50;;
8755;SDS011;4414;42.670;23.228;2022-08-01T13:41:09;3.10;;;2.70;;
8755;SDS011;4414;42.670;23.228;2022-08-01T13:43:36;3.15;;;2.95;;
8755;SDS011;4414;42.670;23.228;2022-08-01T13:46:02;2.83;;;2.63;;
8755;SDS011;4414;42.670;23.228;2022-08-01T13:48:30;2.85;;;2.75;;
8755;SDS011;4414;42.670;23.228;2022-08-01T13:50:57;2.80;;;2.70;;
8755;SDS011;4414;42.670;23.228;2022-08-01T13:53:25;4.32;;;2.80;;
8755;SDS011;4414;42.670;23.228;2022-08-01T13:55:52;3.08;;;2.95;;
8755;SDS011;4414;42.670;23.228;2022-08-01T13:58:20;2.78;;;2.58;;
8755;SDS011;4414;42.670;23.228;2022-08-01T14:00:47;2.80;;;2.60;;
8755;SDS011;4414;42.670;23.228;2022-08-01T14:03:13;3.42;;;3.20;;
8755;SDS011;4414;42.670;23.228;2022-08-01T14:05:41;3.05;;;2.92;;
8755;SDS011;4414;42.670;23.228;2022-08-01T14:08:08;2.70;;;2.60;;
8755;SDS011;4414;42.670;23.228;2022-08-01T14:10:35;2.72;;;2.63;;
8755;SDS011;4414;42.670;23.228;2022-08-01T14:13:02;3.30;;;3.00;;
8755;SDS011;4414;42.670;23.228;2022-08-01T14:15:30;2.75;;;2.50;;
8755;SDS011;4414;42.670;23.228;2022-08-01T14:17:57;3.08;;;2.88;;
8755;SDS011;4414;42.670;23.228;2022-08-01T14:20:25;3.58;;;3.38;;
8755;SDS011;4414;42.670;23.228;2022-08-01T14:22:51;2.75;;;2.65;;
8755;SDS011;4414;42.670;23.228;2022-08-01T14:25:18;3.30;;;3.00;;
8755;SDS011;4414;42.670;23.228;2022-08-01T14:27:45;4.03;;;2.70;;
8755;SDS011;4414;42.670;23.228;2022-08-01T14:30:13;3.00;;;2.80;;
8755;SDS011;4414;42.670;23.228;2022-08-01T14:32:41;2.67;;;2.58;;
8755;SDS011;4414;42.670;23.228;2022-08-01T14:35:08;2.97;;;2.78;;
8755;SDS011;4414;42.670;23.228;2022-08-01T14:37:34;2.75;;;2.55;;
8755;SDS011;4414;42.670;23.228;2022-08-01T14:40:01;2.72;;;2.53;;
8755;SDS011;4414;42.670;23.228;2022-08-01T14:42:32;2.63;;;2.50;;
8755;SDS011;4414;42.670;23.228;2022-08-01T14:44:59;2.33;;;2.22;;
8755;SDS011;4414;42.670;23.228;2022-08-01T14:47:26;2.38;;;2.28;;
8755;SDS011;4414;42.670;23.228;2022-08-01T14:49:54;2.97;;;2.88;;
8755;SDS011;4414;42.670;23.228;2022-08-01T14:52:21;3.70;;;2.50;;
8755;SDS011;4414;42.670;23.228;2022-08-01T14:54:48;2.25;;;2.15;;
8755;SDS011;4414;42.670;23.228;2022-08-01T14:57:19;2.33;;;2.22;;
8755;SDS011;4414;42.670;23.228;2022-08-01T14:59:46;2.25;;;2.15;;
8755;SDS011;4414;42.670;23.228;2022-08-01T15:02:13;2.30;;;2.20;;
8755;SDS011;4414;42.670;23.228;2022-08-01T15:04:42;2.40;;;2.30;;
8755;SDS011;4414;42.670;23.228;2022-08-01T15:07:10;2.60;;;2.45;;
8755;SDS011;4414;42.670;23.228;2022-08-01T15:09:37;4.40;;;2.50;;
8755;SDS011;4414;42.670;23.228;2022-08-01T15:12:04;2.10;;;2.00;;
8755;SDS011;4414;42.670;23.228;2022-08-01T15:14:32;2.38;;;2.28;;
8755;SDS011;4414;42.670;23.228;2022-08-01T15:17:14;2.40;;;2.30;;
8755;SDS011;4414;42.670;23.228;2022-08-01T15:19:41;2.15;;;2.05;;
8755;SDS011;4414;42.670;23.228;2022-08-01T15:22:07;2.15;;;2.05;;
8755;SDS011;4414;42.670;23.228;2022-08-01T15:24:36;2.35;;;2.00;;
8755;SDS011;4414;42.670;23.228;2022-08-01T15:27:03;2.60;;;2.40;;